createdAt,value
2019-04-14T00:01:56.597Z,11.22
2019-04-14T00:04:34.138Z,11.22
2019-04-14T00:07:03.817Z,11.43
2019-04-14T00:09:40.416Z,11.00
2019-04-14T00:12:16.682Z,11.75
2019-04-14T00:14:53.431Z,11.97
2019-04-14T00:17:30.578Z,12.55
2019-04-14T00:20:07.380Z,12.45
2019-04-14T00:22:38.111Z,12.88
2019-04-14T00:25:17.307Z,13.55
2019-04-14T00:27:54.378Z,12.85
2019-04-14T00:30:25.170Z,13.75
2019-04-14T00:33:04.054Z,13.18
2019-04-14T00:35:48.017Z,13.48
2019-04-14T00:38:26.055Z,13.68
2019-04-14T00:41:07.187Z,13.43
2019-04-14T00:43:48.404Z,13.58
2019-04-14T00:47:02.914Z,13.35
2019-04-14T00:49:39.700Z,14.45
2019-04-14T00:52:10.023Z,13.83
2019-04-14T00:54:46.344Z,17.12
2019-04-14T00:57:22.986Z,15.83
2019-04-14T00:59:59.509Z,14.43
2019-04-14T01:02:36.458Z,15.10
2019-04-14T01:05:07.412Z,14.87
2019-04-14T01:07:43.755Z,14.93
2019-04-14T01:10:21.315Z,14.53
2019-04-14T01:12:58.163Z,15.08
2019-04-14T01:15:28.924Z,14.68
2019-04-14T01:18:05.707Z,16.02
2019-04-14T01:20:55.743Z,17.00
2019-04-14T01:23:26.117Z,16.62
2019-04-14T01:26:03.295Z,16.27
2019-04-14T01:28:33.039Z,15.40
2019-04-14T01:31:09.861Z,15.48
2019-04-14T01:33:46.880Z,14.50
2019-04-14T01:36:17.045Z,15.88
2019-04-14T01:38:53.613Z,14.80
2019-04-14T01:41:43.426Z,16.17
2019-04-14T01:44:13.498Z,15.63
2019-04-14T01:46:49.872Z,16.80
2019-04-14T01:49:26.882Z,15.10
2019-04-14T01:52:14.372Z,14.90
2019-04-14T01:54:51.590Z,14.83
2019-04-14T01:57:32.924Z,15.03
2019-04-14T02:00:20.753Z,16.00
2019-04-14T02:02:57.660Z,15.40
2019-04-14T02:05:34.297Z,16.45
2019-04-14T02:08:04.469Z,15.32
2019-04-14T02:10:41.263Z,15.35
2019-04-14T02:13:18.178Z,15.50
2019-04-14T02:15:48.552Z,15.88
2019-04-14T02:18:25.107Z,15.85
2019-04-14T02:20:55.742Z,16.73
2019-04-14T02:23:32.329Z,17.00
2019-04-14T02:26:02.256Z,16.85
2019-04-14T02:28:39.570Z,16.85
2019-04-14T02:31:25.131Z,16.10
2019-04-14T02:34:17.479Z,15.75
2019-04-14T02:39:31.157Z,15.75
2019-04-14T02:44:44.187Z,15.75
2019-04-14T02:50:08.797Z,16.20
2019-04-14T02:53:01.579Z,15.93
2019-04-14T02:55:10.830Z,16.07
2019-04-14T02:57:52.913Z,15.38
2019-04-14T03:00:31.676Z,16.65
2019-04-14T03:03:05.913Z,14.85
2019-04-14T03:05:36.667Z,16.42
2019-04-14T03:08:18.848Z,16.42
2019-04-14T03:10:39.875Z,15.70
2019-04-14T03:21:30.643Z,16.05
2019-04-14T03:24:04.935Z,15.90
2019-04-14T03:26:56.237Z,15.70
2019-04-14T03:29:28.831Z,15.58
2019-04-14T03:32:32.392Z,16.32
2019-04-14T03:34:43.416Z,16.25
2019-04-14T03:39:47.998Z,16.05
2019-04-14T03:42:31.334Z,16.35
2019-04-14T03:45:04.159Z,16.65
2019-04-14T03:48:16.991Z,15.50
2019-04-14T03:50:21.064Z,15.83
2019-04-14T03:53:03.284Z,15.10
2019-04-14T03:55:22.683Z,14.93
2019-04-14T03:57:37.654Z,14.93
2019-04-14T04:00:14.550Z,14.78
2019-04-14T04:02:44.455Z,15.45
2019-04-14T04:05:21.614Z,14.75
2019-04-14T04:07:58.083Z,15.28
2019-04-14T04:10:35.671Z,15.60
2019-04-14T04:13:12.756Z,14.40
2019-04-14T04:15:49.828Z,15.63
2019-04-14T04:18:27.085Z,16.02
2019-04-14T04:21:00.988Z,16.20
2019-04-14T04:23:42.458Z,14.93
2019-04-14T04:26:16.939Z,15.63
2019-04-14T04:29:00.537Z,14.40
2019-04-14T04:34:33.836Z,14.80
2019-04-14T04:37:10.695Z,14.68
2019-04-14T04:39:54.125Z,15.03
2019-04-14T04:42:30.867Z,14.43
2019-04-14T04:45:14.825Z,14.35
2019-04-14T04:47:57.732Z,14.18
2019-04-14T04:50:28.255Z,14.65
2019-04-14T04:53:04.861Z,13.05
2019-04-14T04:55:35.152Z,13.93
2019-04-14T04:58:05.658Z,15.88
2019-04-14T05:00:41.675Z,15.43
2019-04-14T05:03:18.915Z,13.85
2019-04-14T05:06:41.645Z,16.73
2019-04-14T05:09:29.576Z,13.70
2019-04-14T05:12:15.786Z,13.30
2019-04-14T05:15:03.558Z,13.22
2019-04-14T05:17:38.792Z,14.28
2019-04-14T05:20:22.459Z,14.28
2019-04-14T05:25:27.573Z,15.15
2019-04-14T05:27:57.998Z,14.60
2019-04-14T05:30:28.568Z,14.35
2019-04-14T05:33:05.263Z,14.55
2019-04-14T05:35:35.839Z,14.07
2019-04-14T05:38:12.662Z,18.15
2019-04-14T05:40:42.882Z,13.93
2019-04-14T05:43:30.431Z,17.92
2019-04-14T05:45:59.142Z,14.03
2019-04-14T05:48:42.433Z,14.47
2019-04-14T05:51:13.074Z,13.30
2019-04-14T05:53:50.079Z,12.93
2019-04-14T05:56:20.696Z,14.47
2019-04-14T05:58:58.006Z,13.53
2019-04-14T06:01:29.339Z,12.58
2019-04-14T06:04:05.500Z,12.33
2019-04-14T06:06:35.003Z,16.07
2019-04-14T06:09:13.519Z,12.30
2019-04-14T06:11:42.981Z,12.47
2019-04-14T06:14:14.113Z,11.50
2019-04-14T06:16:50.449Z,12.40
2019-04-14T06:19:19.909Z,12.25
2019-04-14T06:22:02.589Z,12.28
2019-04-14T06:24:32.186Z,11.80
2019-04-14T06:27:01.637Z,11.68
2019-04-14T06:29:37.328Z,12.20
2019-04-14T06:32:23.567Z,12.00
2019-04-14T06:35:01.131Z,12.40
2019-04-14T06:37:44.447Z,12.35
2019-04-14T06:40:21.081Z,11.90
2019-04-14T06:42:50.538Z,10.72
2019-04-14T06:45:26.752Z,10.65
2019-04-14T06:48:02.939Z,10.32
2019-04-14T06:50:39.276Z,10.85
2019-04-14T06:53:08.813Z,10.80
2019-04-14T06:55:45.397Z,10.60
2019-04-14T06:58:21.811Z,10.68
2019-04-14T07:00:51.405Z,10.18
2019-04-14T07:03:28.090Z,10.38
2019-04-14T07:06:04.786Z,10.40
2019-04-14T07:08:34.255Z,9.93
2019-04-14T07:11:10.850Z,11.63
2019-04-14T07:13:40.389Z,9.90
2019-04-14T07:16:23.389Z,10.05
2019-04-14T07:18:52.935Z,9.60
2019-04-14T07:21:29.548Z,9.50
2019-04-14T07:23:59.077Z,9.58
2019-04-14T07:26:35.566Z,7.75
2019-04-14T07:29:05.237Z,8.10
2019-04-14T07:31:58.539Z,8.05
2019-04-14T07:34:29.701Z,9.45
2019-04-14T07:37:13.276Z,8.18
2019-04-14T07:39:44.439Z,7.42
2019-04-14T07:42:25.154Z,8.20
2019-04-14T07:45:14.304Z,7.87
2019-04-14T07:48:07.008Z,7.87
2019-04-14T07:51:32.002Z,7.90
2019-04-14T07:54:05.677Z,8.50
2019-04-14T07:56:59.290Z,7.50
2019-04-14T07:59:36.934Z,8.08
2019-04-14T08:02:08.145Z,8.25
2019-04-14T08:04:39.370Z,7.20
2019-04-14T08:07:15.570Z,7.53
2019-04-14T08:09:45.121Z,7.15
2019-04-14T08:12:21.196Z,7.58
2019-04-14T08:14:52.408Z,7.70
2019-04-14T08:17:28.416Z,7.67
2019-04-14T08:19:58.028Z,8.20
2019-04-14T08:22:40.432Z,7.20
2019-04-14T08:25:10.037Z,7.03
2019-04-14T08:27:46.138Z,7.55
2019-04-14T08:30:16.314Z,7.65
2019-04-14T08:32:52.278Z,7.47
2019-04-14T08:35:21.831Z,7.08
2019-04-14T08:37:58.474Z,7.80
2019-04-14T08:40:35.176Z,7.55
2019-04-14T08:43:24.421Z,7.53
2019-04-14T08:46:13.982Z,7.05
2019-04-14T08:48:47.790Z,7.22
2019-04-14T08:51:31.476Z,6.83
2019-04-14T08:54:15.828Z,6.10
2019-04-14T08:56:47.108Z,5.75
2019-04-14T08:59:24.701Z,6.47
2019-04-14T09:02:04.619Z,6.87
2019-04-14T09:04:50.278Z,5.90
2019-04-14T09:07:33.720Z,6.95
2019-04-14T09:10:10.993Z,6.47
2019-04-14T09:12:49.382Z,6.60
2019-04-14T09:15:19.075Z,9.08
2019-04-14T09:17:54.907Z,5.55
2019-04-14T09:20:24.519Z,5.90
2019-04-14T09:23:06.957Z,6.40
2019-04-14T09:25:36.612Z,6.53
2019-04-14T09:28:13.237Z,6.87
2019-04-14T09:30:42.916Z,6.72
2019-04-14T09:33:18.765Z,6.65
2019-04-14T09:35:48.256Z,6.25
2019-04-14T09:38:17.798Z,6.22
2019-04-14T09:40:54.331Z,6.05
2019-04-14T09:43:30.533Z,5.47
2019-04-14T09:46:00.048Z,5.50
2019-04-14T09:48:35.710Z,4.67
2019-04-14T09:51:05.424Z,4.30
2019-04-14T09:53:48.521Z,4.12
2019-04-14T09:56:31.317Z,4.12
2019-04-14T09:59:00.933Z,4.43
2019-04-14T10:01:37.793Z,3.80
2019-04-14T10:04:07.407Z,3.75
2019-04-14T10:06:43.726Z,3.95
2019-04-14T10:09:13.640Z,3.52
2019-04-14T10:11:53.696Z,3.92
2019-04-14T10:14:21.418Z,3.90
2019-04-14T10:16:57.870Z,4.10
2019-04-14T10:19:27.405Z,4.12
2019-04-14T10:22:03.645Z,3.50
2019-04-14T10:24:36.329Z,3.95
2019-04-14T10:27:18.764Z,5.73
2019-04-14T10:29:48.241Z,3.80
2019-04-14T10:32:17.945Z,3.52
2019-04-14T10:34:54.214Z,3.80
2019-04-14T10:37:23.686Z,4.00
2019-04-14T10:39:59.933Z,4.30
2019-04-14T10:42:29.542Z,4.50
2019-04-14T10:45:05.353Z,4.40
2019-04-14T10:47:35.148Z,3.98
2019-04-14T10:50:12.578Z,3.30
2019-04-14T10:52:42.120Z,3.90
2019-04-14T10:55:25.224Z,4.12
2019-04-14T10:57:54.853Z,3.75
2019-04-14T11:00:30.771Z,6.10
2019-04-14T11:03:07.245Z,3.33
2019-04-14T11:05:50.502Z,3.90
2019-04-14T11:08:26.943Z,3.90
2019-04-14T11:10:56.566Z,3.92
2019-04-14T11:13:33.060Z,3.50
2019-04-14T11:16:09.643Z,3.70
2019-04-14T11:18:45.626Z,3.55
2019-04-14T11:21:22.213Z,3.85
2019-04-14T11:23:51.788Z,3.47
2019-04-14T11:26:28.055Z,4.05
2019-04-14T11:28:57.530Z,3.37
2019-04-14T11:31:52.966Z,3.65
2019-04-14T11:34:33.150Z,3.17
2019-04-14T11:37:10.921Z,3.45
2019-04-14T11:39:40.818Z,3.72
2019-04-14T11:42:10.506Z,3.80
2019-04-14T11:44:46.661Z,4.00
2019-04-14T11:47:16.492Z,3.70
2019-04-14T11:49:45.995Z,3.87
2019-04-14T11:52:29.138Z,4.78
2019-04-14T11:55:04.819Z,3.55
2019-04-14T11:57:41.375Z,4.17
2019-04-14T12:00:38.066Z,3.95
2019-04-14T12:03:15.055Z,4.55
2019-04-14T12:05:53.235Z,5.20
2019-04-14T12:08:24.501Z,5.37
2019-04-14T12:11:00.956Z,5.03
2019-04-14T12:13:30.444Z,9.13
2019-04-14T12:16:06.639Z,8.38
2019-04-14T12:18:36.184Z,8.03
2019-04-14T12:21:12.495Z,7.60
2019-04-14T12:23:54.884Z,11.38
2019-04-14T12:26:24.415Z,10.58
2019-04-14T12:29:01.994Z,6.60
2019-04-14T12:31:44.392Z,6.90
2019-04-14T12:34:20.264Z,5.75
2019-04-14T12:36:49.793Z,5.15
2019-04-14T12:39:31.414Z,8.38
2019-04-14T12:42:24.602Z,5.20
2019-04-14T12:44:58.386Z,5.73
2019-04-14T12:47:40.124Z,4.90
2019-04-14T12:50:12.576Z,7.12
2019-04-14T12:52:48.995Z,5.12
2019-04-14T12:55:18.649Z,5.55
2019-04-14T12:58:06.119Z,6.28
2019-04-14T13:00:51.055Z,4.47
2019-04-14T13:03:21.063Z,6.80
2019-04-14T13:05:57.018Z,5.75
2019-04-14T13:08:33.127Z,5.97
2019-04-14T13:11:02.797Z,6.17
2019-04-14T13:13:39.437Z,7.12
2019-04-14T13:16:09.073Z,6.22
2019-04-14T13:19:02.361Z,6.25
2019-04-14T13:21:32.232Z,6.37
2019-04-14T13:24:05.192Z,5.92
2019-04-14T13:26:41.819Z,6.50
2019-04-14T13:29:19.684Z,7.17
2019-04-14T13:31:57.592Z,5.92
2019-04-14T13:34:30.475Z,6.25
2019-04-14T13:37:09.995Z,6.67
2019-04-14T13:39:39.852Z,6.78
2019-04-14T13:42:16.654Z,7.03
2019-04-14T13:44:52.913Z,7.30
2019-04-14T13:47:23.188Z,7.15
2019-04-14T13:49:59.719Z,5.90
2019-04-14T13:52:30.938Z,5.47
2019-04-14T13:55:07.732Z,6.40
2019-04-14T13:57:50.283Z,5.67
2019-04-14T14:00:20.719Z,5.60
2019-04-14T14:02:57.351Z,6.00
2019-04-14T14:05:33.082Z,5.92
2019-04-14T14:08:09.829Z,7.55
2019-04-14T14:10:39.422Z,5.92
2019-04-14T14:13:17.234Z,6.92
2019-04-14T14:16:04.323Z,6.80
2019-04-14T14:18:48.600Z,5.70
2019-04-14T14:21:34.868Z,5.80
2019-04-14T14:24:28.959Z,5.95
2019-04-14T14:27:03.016Z,5.70
2019-04-14T14:29:39.299Z,7.25
2019-04-14T14:32:10.391Z,7.40
2019-04-14T14:34:46.068Z,6.33
2019-04-14T14:37:15.598Z,6.05
2019-04-14T14:39:52.134Z,5.95
2019-04-14T14:42:21.622Z,5.80
2019-04-14T14:45:04.908Z,6.10
2019-04-14T14:47:41.589Z,5.37
2019-04-14T14:50:19.338Z,11.50
2019-04-14T14:52:55.645Z,6.47
2019-04-14T14:55:38.406Z,7.03
2019-04-14T14:58:21.189Z,6.75
2019-04-14T15:00:57.898Z,7.10
2019-04-14T15:03:27.529Z,8.70
2019-04-14T15:06:03.738Z,7.35
2019-04-14T15:08:33.339Z,5.60
2019-04-14T15:11:04.318Z,5.08
2019-04-14T15:13:40.933Z,5.67
2019-04-14T15:16:10.619Z,5.42
2019-04-14T15:18:47.254Z,6.10
2019-04-14T15:21:16.865Z,5.85
2019-04-14T15:23:52.739Z,5.95
2019-04-14T15:26:22.336Z,6.33
2019-04-14T15:28:58.004Z,6.12
2019-04-14T15:31:27.596Z,5.58
2019-04-14T15:34:03.863Z,7.40
2019-04-14T15:36:33.411Z,6.40
2019-04-14T15:39:11.105Z,6.65
2019-04-14T15:41:40.837Z,6.87
2019-04-14T15:44:17.099Z,6.45
2019-04-14T15:46:46.635Z,6.45
2019-04-14T15:49:22.757Z,7.15
2019-04-14T15:51:59.360Z,7.78
2019-04-14T15:54:35.893Z,7.22
2019-04-14T15:57:32.899Z,7.20
2019-04-14T16:00:20.777Z,8.38
2019-04-14T16:03:01.734Z,7.50
2019-04-14T16:05:39.251Z,6.97
2019-04-14T16:08:10.547Z,6.87
2019-04-14T16:10:54.246Z,6.55
2019-04-14T16:16:14.309Z,7.20
2019-04-14T16:18:54.938Z,7.15
2019-04-14T16:21:24.543Z,13.18
2019-04-14T16:24:00.566Z,9.35
2019-04-14T16:26:31.810Z,7.55
2019-04-14T16:29:24.951Z,7.22
2019-04-14T16:32:05.721Z,7.77
2019-04-14T16:34:43.294Z,7.62
2019-04-14T16:37:19.869Z,7.30
2019-04-14T16:39:49.331Z,7.20
2019-04-14T16:42:25.814Z,7.05
2019-04-14T16:44:55.495Z,7.90
2019-04-14T16:47:31.677Z,6.60
2019-04-14T16:50:01.203Z,6.85
2019-04-14T16:52:47.625Z,9.13
2019-04-14T16:55:34.592Z,9.00
2019-04-14T16:58:15.380Z,6.47
2019-04-14T17:00:59.640Z,6.55
2019-04-14T17:03:29.158Z,5.35
2019-04-14T17:06:05.627Z,6.03
2019-04-14T17:08:35.299Z,6.20
2019-04-14T17:11:12.257Z,5.85
2019-04-14T17:13:43.506Z,5.83
2019-04-14T17:16:33.326Z,6.15
2019-04-14T17:19:19.339Z,6.45
2019-04-14T17:21:57.093Z,5.25
2019-04-14T17:24:37.272Z,5.80
2019-04-14T17:27:21.952Z,6.05
2019-04-14T17:29:59.035Z,6.28
2019-04-14T17:32:40.059Z,6.05
2019-04-14T17:35:11.370Z,6.33
2019-04-14T17:37:42.537Z,8.48
2019-04-14T17:40:20.826Z,10.25
2019-04-14T17:42:52.092Z,11.48
2019-04-14T17:45:50.606Z,13.15
2019-04-14T17:48:20.833Z,9.25
2019-04-14T17:51:07.009Z,8.98
2019-04-14T17:53:38.319Z,7.78
2019-04-14T17:56:18.600Z,6.67
2019-04-14T17:59:08.300Z,13.08
2019-04-14T18:01:51.959Z,12.00
2019-04-14T18:04:39.131Z,10.18
2019-04-14T18:07:19.273Z,13.32
2019-04-14T18:10:08.679Z,9.15
2019-04-14T18:12:39.785Z,15.98
2019-04-14T18:15:23.639Z,8.13
2019-04-14T18:18:17.247Z,7.47
2019-04-14T18:20:55.117Z,8.78
2019-04-14T18:23:31.316Z,12.53
2019-04-14T18:26:08.180Z,16.55
2019-04-14T18:28:39.501Z,11.15
2019-04-14T18:31:28.797Z,12.47
2019-04-14T18:34:21.461Z,14.47
2019-04-14T18:37:00.205Z,19.02
2019-04-14T18:39:53.385Z,10.85
2019-04-14T18:42:30.682Z,10.10
2019-04-14T18:45:02.227Z,8.18
2019-04-14T18:47:42.535Z,10.43
2019-04-14T18:50:26.527Z,8.33
2019-04-14T18:53:10.620Z,7.70
2019-04-14T18:55:51.608Z,8.20
2019-04-14T18:58:45.689Z,17.67
2019-04-14T19:01:23.018Z,10.53
2019-04-14T19:04:07.184Z,11.90
2019-04-14T19:06:36.729Z,8.93
2019-04-14T19:09:20.058Z,18.45
2019-04-14T19:11:57.178Z,11.33
2019-04-14T19:14:35.138Z,10.40
2019-04-14T19:17:09.276Z,10.80
2019-04-14T19:19:46.591Z,18.95
2019-04-14T19:22:29.455Z,17.17
2019-04-14T19:25:08.408Z,11.08
2019-04-14T19:27:44.622Z,11.50
2019-04-14T19:30:21.146Z,12.43
2019-04-14T19:32:50.764Z,10.72
2019-04-14T19:35:33.752Z,11.68
2019-04-14T19:38:09.432Z,10.45
2019-04-14T19:40:45.150Z,13.83
2019-04-14T19:43:23.909Z,9.75
2019-04-14T19:45:53.040Z,9.45
2019-04-14T19:48:22.650Z,9.95
2019-04-14T19:50:58.403Z,18.77
2019-04-14T19:53:34.495Z,15.03
2019-04-14T19:56:10.209Z,9.20
2019-04-14T19:58:46.238Z,8.68
2019-04-14T20:01:15.841Z,15.88
2019-04-14T20:03:51.640Z,11.20
2019-04-14T20:06:21.174Z,9.65
2019-04-14T20:08:58.844Z,8.60
2019-04-14T20:11:28.493Z,17.65
2019-04-14T20:14:04.703Z,15.50
2019-04-14T20:16:38.759Z,8.58
2019-04-14T20:19:38.014Z,10.08
2019-04-14T20:22:12.113Z,10.85
2019-04-14T20:24:55.654Z,11.15
2019-04-14T20:27:38.387Z,10.08
2019-04-14T20:30:22.500Z,10.50
2019-04-14T20:32:52.113Z,9.75
2019-04-14T20:35:21.644Z,12.80
2019-04-14T20:37:58.243Z,11.43
2019-04-14T20:40:34.773Z,11.25
2019-04-14T20:43:17.695Z,10.43
2019-04-14T20:45:47.299Z,9.95
2019-04-14T20:48:23.097Z,10.10
2019-04-14T20:50:52.621Z,12.35
2019-04-14T20:53:29.300Z,12.18
2019-04-14T20:56:05.867Z,8.98
2019-04-14T20:58:35.673Z,8.20
2019-04-14T21:01:06.922Z,8.65
2019-04-14T21:03:48.030Z,18.60
2019-04-14T21:06:46.788Z,14.80
2019-04-14T21:09:36.477Z,9.65
2019-04-14T21:12:07.712Z,9.23
2019-04-14T21:15:01.989Z,9.90
2019-04-14T21:17:36.117Z,9.28
2019-04-14T21:20:19.957Z,11.50
2019-04-14T21:23:00.955Z,11.75
2019-04-14T21:25:41.783Z,11.28
2019-04-14T21:28:24.928Z,9.55
2019-04-14T21:31:08.249Z,9.33
2019-04-14T21:33:51.081Z,8.95
2019-04-14T21:36:28.365Z,9.65
2019-04-14T21:39:11.072Z,9.43
2019-04-14T21:41:48.810Z,8.60
2019-04-14T21:44:18.294Z,9.00
2019-04-14T21:46:47.742Z,8.63
2019-04-14T21:49:23.737Z,9.75
2019-04-14T21:52:13.811Z,13.18
2019-04-14T21:54:50.912Z,10.50
2019-04-14T21:57:40.323Z,9.93
2019-04-14T22:00:42.966Z,8.70
2019-04-14T22:03:19.840Z,10.35
2019-04-14T22:06:14.299Z,9.23
2019-04-14T22:08:58.320Z,12.65
2019-04-14T22:11:35.097Z,10.18
2019-04-14T22:14:04.698Z,9.28
2019-04-14T22:16:35.817Z,9.63
2019-04-14T22:19:12.336Z,9.25
2019-04-14T22:21:48.965Z,9.68
2019-04-14T22:24:18.483Z,15.78
2019-04-14T22:26:55.000Z,11.73
2019-04-14T22:29:24.624Z,9.28
2019-04-14T22:31:54.216Z,9.15
2019-04-14T22:34:29.834Z,8.60
2019-04-14T22:37:05.600Z,8.45
2019-04-14T22:39:35.123Z,9.10
2019-04-14T22:42:04.644Z,8.15
2019-04-14T22:44:40.470Z,8.85
2019-04-14T22:47:17.076Z,8.35
2019-04-14T22:49:52.924Z,8.43
2019-04-14T22:52:29.372Z,8.08
2019-04-14T22:55:04.910Z,8.50
2019-04-14T22:57:40.644Z,10.65
2019-04-14T23:00:16.172Z,8.18
2019-04-14T23:03:12.781Z,8.63
2019-04-14T23:06:05.936Z,8.25
2019-04-14T23:08:43.081Z,8.60
2019-04-14T23:11:36.792Z,8.50
2019-04-14T23:14:30.055Z,8.95
2019-04-14T23:17:17.013Z,9.15
2019-04-14T23:19:48.169Z,9.30
2019-04-14T23:22:37.322Z,8.80
2019-04-14T23:25:13.575Z,9.55
2019-04-14T23:27:49.923Z,9.18
2019-04-14T23:30:19.448Z,10.00
2019-04-14T23:32:55.474Z,9.65
2019-04-14T23:35:31.057Z,9.30
2019-04-14T23:38:00.645Z,10.50
2019-04-14T23:40:36.686Z,9.00
2019-04-14T23:43:12.586Z,8.70
2019-04-14T23:45:42.192Z,8.70
2019-04-14T23:48:18.554Z,8.95
2019-04-14T23:50:54.669Z,9.45
2019-04-14T23:53:24.189Z,9.40
2019-04-14T23:55:59.831Z,9.33
2019-04-14T23:58:42.313Z,9.50
